Grudziadz, Poland
Current Conditions -  °F | °C
As of 11:30 PM on Wednesday 26 Nov 2014 (Local Time) from EPBY Reporting Station
Haze Haze  
Wind Chill: 39°   Ceiling: 300
Heat Index: 39°   Visibility: 1.8mi
Dew Point: 37°   Wind: 1mph
Humidity: 93%   Direction: 110°ESE
Pressure: 30.24"   Gusts: NA
Location:  53.49°N, 18.75°E
Report Text: EPBY 262130Z 11001KT 3000 BR OVC003 04/03 Q1024
Loading
Personal Weather Stations






























Interactive Weather Map New forecast layout! Learn more

10-Day Weather Forecast

Advertisements
Track Severe Weather on mobile